Time;durP1;ratioP1;P1;durP2;ratioP2;P2;SDS_P1;SDS_P2;PMS_P1;PMS_P2;Temp;Humidity;BMP_temperature;BMP_pressure;BME280_temperature;BME280_humidity;BME280_pressure;Samples;Min_cycle;Max_cycle;Signal;HPM_P1;HPM_P2
2023/07/13 00:01:54;;;;;;;1.77;1.15;;;;;;;;;;5000864;28;20216;-87
2023/07/13 00:04:24;;;;;;;1.13;0.90;;;;;;;;;;5008333;28;20233;-87
2023/07/13 00:06:51;;;;;;;2.22;1.38;;;;;;;;;;4997177;28;20269;-86
2023/07/13 00:09:19;;;;;;;2.30;1.42;;;;;;;;;;5005383;28;20236;-87
2023/07/13 00:11:47;;;;;;;1.15;0.95;;;;;;;;;;5003759;28;20246;-88
2023/07/13 00:14:15;;;;;;;1.40;1.30;;;;;;;;;;5004370;28;20235;-86
2023/07/13 00:16:43;;;;;;;1.17;1.08;;;;;;;;;;5012961;28;20215;-87
2023/07/13 00:19:11;;;;;;;1.88;1.05;;;;;;;;;;4994962;28;20237;-87
2023/07/13 00:21:40;;;;;;;2.45;1.35;;;;;;;;;;4996298;28;20254;-87
2023/07/13 00:24:07;;;;;;;3.28;1.52;;;;;;;;;;5006963;28;20231;-86
2023/07/13 00:26:34;;;;;;;5.25;1.10;;;;;;;;;;4993033;28;20208;-87
2023/07/13 00:29:01;;;;;;;5.47;1.27;;;;;;;;;;4991451;28;20609;-87
2023/07/13 00:31:28;;;;;;;4.00;1.30;;;;;;;;;;4998206;28;20649;-86
2023/07/13 00:33:55;;;;;;;1.25;1.10;;;;;;;;;;4992661;28;20240;-87
2023/07/13 00:36:22;;;;;;;2.97;1.50;;;;;;;;;;5002385;28;20215;-87
2023/07/13 00:38:51;;;;;;;1.67;1.50;;;;;;;;;;5011510;28;20224;-87
2023/07/13 00:41:18;;;;;;;2.10;1.25;;;;;;;;;;4997691;28;20226;-87
2023/07/13 00:43:45;;;;;;;1.48;1.10;;;;;;;;;;5012852;28;20239;-86
2023/07/13 00:46:21;;;;;;;1.30;1.20;;;;;;;;;;5017039;28;20246;-87
2023/07/13 00:48:49;;;;;;;2.97;1.30;;;;;;;;;;5007058;28;20227;-87
2023/07/13 00:51:18;;;;;;;2.10;1.48;;;;;;;;;;5009360;28;20228;-87
2023/07/13 00:53:45;;;;;;;2.42;1.50;;;;;;;;;;4988030;28;20235;-87
2023/07/13 00:56:14;;;;;;;1.48;1.38;;;;;;;;;;4996630;28;20212;-87
2023/07/13 00:58:41;;;;;;;3.83;1.15;;;;;;;;;;5003436;28;20232;-87
2023/07/13 01:01:08;;;;;;;1.45;1.15;;;;;;;;;;5007175;28;20240;-85
2023/07/13 01:03:37;;;;;;;1.73;1.40;;;;;;;;;;5013567;28;20285;-86
2023/07/13 01:06:04;;;;;;;1.20;1.10;;;;;;;;;;5008005;28;20626;-86
2023/07/13 01:08:31;;;;;;;2.65;2.17;;;;;;;;;;5006592;28;20311;-87
2023/07/13 01:10:59;;;;;;;1.27;1.15;;;;;;;;;;5003841;28;20224;-87
2023/07/13 01:13:27;;;;;;;2.67;1.30;;;;;;;;;;5007406;28;20227;-87
2023/07/13 01:15:56;;;;;;;2.22;1.40;;;;;;;;;;4987149;28;20692;-87
2023/07/13 01:18:24;;;;;;;2.40;1.38;;;;;;;;;;4986971;28;20279;-88
2023/07/13 01:20:56;;;;;;;2.00;1.52;;;;;;;;;;5001571;28;20219;-87
2023/07/13 01:23:24;;;;;;;1.83;1.33;;;;;;;;;;4991537;28;20286;-85
2023/07/13 01:25:51;;;;;;;3.33;1.60;;;;;;;;;;5014973;28;20273;-87
2023/07/13 01:28:19;;;;;;;2.30;1.27;;;;;;;;;;5008082;28;20254;-87
2023/07/13 01:30:46;;;;;;;3.35;1.38;;;;;;;;;;5015107;28;20231;-87
2023/07/13 01:33:14;;;;;;;1.77;1.33;;;;;;;;;;5009369;28;20247;-87
2023/07/13 01:35:41;;;;;;;1.52;1.17;;;;;;;;;;4997425;28;20270;-86
2023/07/13 01:38:10;;;;;;;2.58;1.50;;;;;;;;;;4998586;28;20287;-87
2023/07/13 01:40:38;;;;;;;1.63;1.50;;;;;;;;;;4985170;28;20238;-86
2023/07/13 01:43:05;;;;;;;2.78;1.48;;;;;;;;;;4992299;28;20281;-87
2023/07/13 01:45:32;;;;;;;2.03;1.88;;;;;;;;;;4999051;28;20216;-87
2023/07/13 01:47:59;;;;;;;2.92;1.20;;;;;;;;;;5001233;28;20629;-87
2023/07/13 01:50:26;;;;;;;1.77;1.30;;;;;;;;;;4991541;28;20228;-87
2023/07/13 01:52:53;;;;;;;2.22;1.50;;;;;;;;;;4996773;28;20235;-88
2023/07/13 01:55:22;;;;;;;1.63;1.52;;;;;;;;;;5008473;28;20251;-87
2023/07/13 01:57:49;;;;;;;2.95;1.50;;;;;;;;;;5013689;28;20231;-88
2023/07/13 02:00:17;;;;;;;1.45;1.33;;;;;;;;;;5015041;28;20231;-85
2023/07/13 02:02:44;;;;;;;1.95;1.70;;;;;;;;;;5004803;28;20243;-88
2023/07/13 02:05:11;;;;;;;3.00;1.30;;;;;;;;;;5002739;28;20208;-87
2023/07/13 02:07:38;;;;;;;1.88;1.20;;;;;;;;;;5011456;28;20269;-87
2023/07/13 02:10:05;;;;;;;3.28;1.42;;;;;;;;;;4999745;28;20767;-86
2023/07/13 02:12:33;;;;;;;3.53;1.42;;;;;;;;;;5014293;28;20228;-86
2023/07/13 02:15:00;;;;;;;7.35;1.90;;;;;;;;;;5008989;28;20217;-87
2023/07/13 02:17:28;;;;;;;3.42;1.38;;;;;;;;;;4983435;28;20268;-87
2023/07/13 02:19:55;;;;;;;2.22;1.50;;;;;;;;;;4997678;28;20235;-87
2023/07/13 02:22:23;;;;;;;1.92;1.70;;;;;;;;;;5007775;28;20219;-87
2023/07/13 02:24:50;;;;;;;2.00;1.60;;;;;;;;;;5005242;28;20270;-87
2023/07/13 02:27:17;;;;;;;1.40;1.27;;;;;;;;;;5000664;28;20211;-87
2023/07/13 02:29:45;;;;;;;3.13;1.50;;;;;;;;;;5002448;28;20228;-88
2023/07/13 02:32:12;;;;;;;1.75;1.40;;;;;;;;;;5008402;28;20220;-87
2023/07/13 02:34:39;;;;;;;2.95;1.55;;;;;;;;;;4995990;28;20236;-86
2023/07/13 02:37:06;;;;;;;1.55;1.45;;;;;;;;;;4996308;28;20212;-88
2023/07/13 02:39:33;;;;;;;4.50;1.88;;;;;;;;;;5010632;28;20239;-87
2023/07/13 02:42:00;;;;;;;2.38;1.23;;;;;;;;;;5014161;28;20199;-87
2023/07/13 02:44:27;;;;;;;1.98;1.48;;;;;;;;;;4996174;28;20287;-87
2023/07/13 02:46:56;;;;;;;2.00;1.30;;;;;;;;;;5012957;28;20274;-87
2023/07/13 02:49:23;;;;;;;1.63;1.52;;;;;;;;;;5013493;28;20233;-86
2023/07/13 02:51:50;;;;;;;3.95;1.67;;;;;;;;;;5005861;28;20227;-87
2023/07/13 02:54:17;;;;;;;2.72;1.60;;;;;;;;;;5005798;28;20771;-87
2023/07/13 02:56:44;;;;;;;1.42;1.33;;;;;;;;;;5013855;28;20218;-88
2023/07/13 02:59:12;;;;;;;2.40;1.42;;;;;;;;;;5013494;28;20605;-88
2023/07/13 03:01:39;;;;;;;2.88;1.30;;;;;;;;;;5005857;28;20223;-87
2023/07/13 03:04:07;;;;;;;2.05;1.40;;;;;;;;;;5006912;28;20223;-87
2023/07/13 03:06:35;;;;;;;3.35;1.40;;;;;;;;;;5012715;28;20677;-87
2023/07/13 03:09:02;;;;;;;1.65;1.55;;;;;;;;;;5009789;28;20227;-87
2023/07/13 03:11:29;;;;;;;1.92;1.50;;;;;;;;;;5009441;28;20231;-87
2023/07/13 03:13:56;;;;;;;2.00;1.60;;;;;;;;;;4991291;28;20231;-87
2023/07/13 03:16:23;;;;;;;1.87;1.27;;;;;;;;;;5013947;28;20256;-87
2023/07/13 03:18:50;;;;;;;2.27;1.67;;;;;;;;;;5002832;28;20232;-88
2023/07/13 03:21:19;;;;;;;1.57;1.47;;;;;;;;;;5007578;28;20227;-87
2023/07/13 03:23:46;;;;;;;1.97;1.70;;;;;;;;;;4995809;28;20286;-87
2023/07/13 03:26:14;;;;;;;1.50;1.30;;;;;;;;;;5006279;28;20623;-87
2023/07/13 03:28:41;;;;;;;1.70;1.40;;;;;;;;;;5013223;28;20775;-88
2023/07/13 03:31:10;;;;;;;3.37;1.60;;;;;;;;;;5009121;28;20236;-87
2023/07/13 03:33:37;;;;;;;3.57;1.40;;;;;;;;;;4993595;28;20227;-88
2023/07/13 03:36:05;;;;;;;3.83;1.70;;;;;;;;;;5013491;28;20725;-87
2023/07/13 03:38:34;;;;;;;3.00;1.47;;;;;;;;;;5013179;28;20231;-87
2023/07/13 03:41:01;;;;;;;3.40;1.53;;;;;;;;;;5004760;28;20289;-88
2023/07/13 03:43:28;;;;;;;2.53;1.40;;;;;;;;;;4999844;28;20235;-85
2023/07/13 03:45:55;;;;;;;1.50;1.40;;;;;;;;;;5000683;28;20211;-86
2023/07/13 03:48:22;;;;;;;2.53;1.70;;;;;;;;;;4999342;28;20231;-88
2023/07/13 03:50:50;;;;;;;2.20;1.70;;;;;;;;;;5010476;28;20235;-86
2023/07/13 03:53:18;;;;;;;2.10;1.53;;;;;;;;;;4999611;28;20227;-85
2023/07/13 03:55:46;;;;;;;2.83;2.00;;;;;;;;;;4996027;28;20690;-85
2023/07/13 03:58:27;;;;;;;1.80;1.70;;;;;;;;;;4999043;28;20235;-85
2023/07/13 04:00:54;;;;;;;3.03;1.97;;;;;;;;;;5001688;28;20231;-85
2023/07/13 04:03:21;;;;;;;4.27;1.70;;;;;;;;;;5000978;28;20600;-86
2023/07/13 04:05:49;;;;;;;1.63;1.53;;;;;;;;;;5012068;28;20215;-86
2023/07/13 04:08:16;;;;;;;1.67;1.50;;;;;;;;;;5003702;28;20278;-85
2023/07/13 04:10:43;;;;;;;3.47;1.80;;;;;;;;;;5003044;28;20582;-85
2023/07/13 04:13:12;;;;;;;3.50;1.63;;;;;;;;;;4990157;28;20235;-85
2023/07/13 04:15:40;;;;;;;2.60;1.60;;;;;;;;;;5006112;28;20215;-86
2023/07/13 04:18:07;;;;;;;2.27;2.07;;;;;;;;;;5000470;28;20235;-85
2023/07/13 04:20:35;;;;;;;2.87;1.60;;;;;;;;;;5007497;28;20219;-85
2023/07/13 04:23:02;;;;;;;5.60;2.03;;;;;;;;;;5006838;28;20288;-85
2023/07/13 04:25:29;;;;;;;1.60;1.50;;;;;;;;;;4996488;28;20320;-85
2023/07/13 04:27:56;;;;;;;1.67;1.57;;;;;;;;;;5004726;28;20286;-85
2023/07/13 04:30:24;;;;;;;3.37;2.00;;;;;;;;;;5007620;28;20234;-85
2023/07/13 04:32:52;;;;;;;1.83;1.50;;;;;;;;;;5013569;28;20242;-85
2023/07/13 04:35:21;;;;;;;1.60;1.40;;;;;;;;;;5009548;28;20211;-85
2023/07/13 04:37:49;;;;;;;4.47;1.70;;;;;;;;;;5014110;28;20231;-85
2023/07/13 04:40:17;;;;;;;2.10;1.90;;;;;;;;;;5008936;28;20227;-85
2023/07/13 04:42:44;;;;;;;2.40;1.83;;;;;;;;;;5010354;28;20235;-85
2023/07/13 04:45:11;;;;;;;2.13;1.73;;;;;;;;;;5010317;28;20207;-86
2023/07/13 04:47:39;;;;;;;3.30;1.60;;;;;;;;;;5007360;28;20600;-85
2023/07/13 04:50:07;;;;;;;4.87;2.00;;;;;;;;;;4999608;28;20231;-86
2023/07/13 04:52:34;;;;;;;2.97;1.73;;;;;;;;;;5006807;28;20239;-85
2023/07/13 04:55:01;;;;;;;2.43;1.90;;;;;;;;;;5004816;28;20211;-86
2023/07/13 04:57:28;;;;;;;3.80;1.70;;;;;;;;;;5003716;28;20207;-86
2023/07/13 04:59:55;;;;;;;3.47;2.07;;;;;;;;;;5004684;28;20231;-86
2023/07/13 05:02:23;;;;;;;3.10;2.00;;;;;;;;;;5015311;28;20287;-87
2023/07/13 05:04:51;;;;;;;2.13;1.73;;;;;;;;;;5015578;28;20211;-85
2023/07/13 05:07:18;;;;;;;2.27;1.83;;;;;;;;;;5007125;28;20207;-85
2023/07/13 05:09:45;;;;;;;1.70;1.60;;;;;;;;;;5012949;28;20235;-86
2023/07/13 05:12:12;;;;;;;2.00;1.80;;;;;;;;;;5007546;28;20227;-85
2023/07/13 05:14:39;;;;;;;1.83;1.73;;;;;;;;;;5014961;28;20235;-86
2023/07/13 05:17:06;;;;;;;3.73;2.10;;;;;;;;;;5003783;28;20269;-86
2023/07/13 05:19:33;;;;;;;2.93;1.80;;;;;;;;;;5009817;28;20289;-86
2023/07/13 05:22:02;;;;;;;5.80;2.00;;;;;;;;;;5004227;28;20617;-85
2023/07/13 05:24:29;;;;;;;2.47;1.77;;;;;;;;;;5008045;28;20732;-86
2023/07/13 05:26:57;;;;;;;3.77;2.10;;;;;;;;;;5003147;28;20282;-85
2023/07/13 05:29:24;;;;;;;4.53;1.70;;;;;;;;;;5008232;28;20235;-86
2023/07/13 05:31:51;;;;;;;3.37;1.77;;;;;;;;;;5006373;28;20228;-85
2023/07/13 05:34:21;;;;;;;2.50;1.70;;;;;;;;;;5007809;28;20231;-85
2023/07/13 05:36:49;;;;;;;4.10;1.47;;;;;;;;;;4995736;28;20212;-85
2023/07/13 05:39:18;;;;;;;2.83;1.30;;;;;;;;;;5009687;28;20230;-86
2023/07/13 05:41:45;;;;;;;7.43;2.60;;;;;;;;;;5013328;28;20838;-86
2023/07/13 05:44:12;;;;;;;3.00;1.40;;;;;;;;;;5001751;28;20228;-86
2023/07/13 05:46:39;;;;;;;2.53;1.17;;;;;;;;;;5001207;28;20608;-85
2023/07/13 05:49:06;;;;;;;2.57;1.70;;;;;;;;;;5007513;28;20239;-86
2023/07/13 05:51:33;;;;;;;1.20;1.10;;;;;;;;;;5007368;28;20258;-85
2023/07/13 05:54:00;;;;;;;4.63;1.50;;;;;;;;;;5004320;28;20297;-84
2023/07/13 05:56:28;;;;;;;4.70;1.70;;;;;;;;;;5004842;28;20303;-86
2023/07/13 05:58:55;;;;;;;2.70;1.17;;;;;;;;;;5008555;28;20232;-85
2023/07/13 06:01:23;;;;;;;2.63;1.27;;;;;;;;;;5013125;28;20782;-84
2023/07/13 06:03:50;;;;;;;1.48;1.20;;;;;;;;;;5004316;28;20234;-83
2023/07/13 06:06:17;;;;;;;2.00;1.20;;;;;;;;;;5010419;28;20207;-83
2023/07/13 06:08:44;;;;;;;2.13;1.08;;;;;;;;;;5011722;28;20286;-83
2023/07/13 06:11:14;;;;;;;1.40;1.10;;;;;;;;;;5013181;28;20281;-83
2023/07/13 06:13:42;;;;;;;1.70;1.15;;;;;;;;;;5012866;28;20326;-84
2023/07/13 06:16:10;;;;;;;1.77;1.00;;;;;;;;;;5010626;28;20569;-84
2023/07/13 06:18:37;;;;;;;3.95;1.40;;;;;;;;;;5008584;28;20631;-83
2023/07/13 06:21:08;;;;;;;2.28;1.20;;;;;;;;;;5012575;28;20771;-84
2023/07/13 06:23:35;;;;;;;1.70;1.15;;;;;;;;;;5012643;28;20586;-83
2023/07/13 06:26:02;;;;;;;1.23;0.88;;;;;;;;;;5012258;28;20689;-84
2023/07/13 06:28:30;;;;;;;2.65;1.00;;;;;;;;;;5012948;28;20285;-82
2023/07/13 06:30:58;;;;;;;2.45;1.30;;;;;;;;;;5004630;28;20242;-83
2023/07/13 06:33:25;;;;;;;1.60;1.13;;;;;;;;;;5012619;28;20243;-84
2023/07/13 06:35:52;;;;;;;1.38;1.20;;;;;;;;;;5006452;28;20211;-86
2023/07/13 06:38:20;;;;;;;1.83;1.02;;;;;;;;;;5015686;28;20227;-86
2023/07/13 06:40:48;;;;;;;2.40;1.33;;;;;;;;;;5016646;28;20815;-87
2023/07/13 06:43:15;;;;;;;4.47;1.30;;;;;;;;;;5017390;28;20227;-86
2023/07/13 06:45:42;;;;;;;2.92;1.20;;;;;;;;;;4992745;28;20205;-86
2023/07/13 06:48:11;;;;;;;2.95;1.20;;;;;;;;;;5002820;28;20259;-86
2023/07/13 06:50:39;;;;;;;1.73;1.10;;;;;;;;;;4994139;28;20236;-86
2023/07/13 06:53:06;;;;;;;2.20;1.10;;;;;;;;;;5003796;28;20235;-85
2023/07/13 06:55:33;;;;;;;2.53;1.17;;;;;;;;;;5004274;28;20212;-85
2023/07/13 06:58:00;;;;;;;4.30;1.67;;;;;;;;;;5014087;28;20262;-85
2023/07/13 07:00:27;;;;;;;1.50;1.08;;;;;;;;;;5009574;28;20775;-87
2023/07/13 07:02:54;;;;;;;3.17;1.70;;;;;;;;;;5009505;28;20227;-86
2023/07/13 07:05:22;;;;;;;2.92;1.38;;;;;;;;;;5014891;28;20201;-86
2023/07/13 07:07:50;;;;;;;2.50;1.00;;;;;;;;;;5002753;28;20289;-86
2023/07/13 07:10:18;;;;;;;1.83;0.82;;;;;;;;;;5010340;28;20295;-84
2023/07/13 07:12:45;;;;;;;1.60;1.15;;;;;;;;;;5009871;28;20281;-85
2023/07/13 07:15:12;;;;;;;1.42;1.17;;;;;;;;;;5015355;28;20261;-82
2023/07/13 07:17:39;;;;;;;4.10;1.25;;;;;;;;;;5004104;28;20239;-81
2023/07/13 07:20:06;;;;;;;2.03;1.20;;;;;;;;;;5009238;28;20227;-81
2023/07/13 07:22:35;;;;;;;1.58;1.15;;;;;;;;;;5004545;28;20235;-81
2023/07/13 07:25:02;;;;;;;3.33;1.30;;;;;;;;;;5008781;28;20234;-86
2023/07/13 07:27:29;;;;;;;3.15;1.13;;;;;;;;;;5012895;28;20250;-85
2023/07/13 07:29:58;;;;;;;3.05;1.33;;;;;;;;;;5013045;28;20231;-85
2023/07/13 07:32:25;;;;;;;2.00;1.30;;;;;;;;;;5005895;28;20225;-86
2023/07/13 07:34:52;;;;;;;2.78;0.98;;;;;;;;;;5014409;28;20200;-85
2023/07/13 07:37:19;;;;;;;1.05;0.95;;;;;;;;;;5014155;28;20200;-85
2023/07/13 07:39:48;;;;;;;1.95;0.85;;;;;;;;;;5000892;28;20224;-86
2023/07/13 07:42:15;;;;;;;1.35;1.20;;;;;;;;;;5007508;28;20204;-86
2023/07/13 07:44:42;;;;;;;2.13;0.98;;;;;;;;;;5014179;28;20242;-86
2023/07/13 07:47:09;;;;;;;1.48;0.95;;;;;;;;;;5013664;28;20262;-84
2023/07/13 07:49:36;;;;;;;2.35;1.13;;;;;;;;;;5012406;28;20230;-85
2023/07/13 07:52:03;;;;;;;1.70;1.05;;;;;;;;;;5003528;28;20209;-85
2023/07/13 07:54:30;;;;;;;1.42;1.02;;;;;;;;;;5007958;28;20278;-86
2023/07/13 07:56:59;;;;;;;2.35;1.02;;;;;;;;;;5012145;28;20219;-86
2023/07/13 07:59:27;;;;;;;0.90;0.82;;;;;;;;;;5010181;28;20327;-86
2023/07/13 08:01:54;;;;;;;4.05;0.90;;;;;;;;;;5002089;28;20676;-84
2023/07/13 08:04:21;;;;;;;3.08;1.20;;;;;;;;;;5013423;28;20289;-86
2023/07/13 08:06:48;;;;;;;1.67;0.70;;;;;;;;;;5013811;28;20211;-86
2023/07/13 08:09:15;;;;;;;1.75;1.17;;;;;;;;;;5011525;28;20235;-86
2023/07/13 08:11:42;;;;;;;1.83;0.88;;;;;;;;;;5012527;28;20286;-86
2023/07/13 08:14:10;;;;;;;3.60;0.98;;;;;;;;;;5011253;28;20239;-86
2023/07/13 08:16:37;;;;;;;2.92;1.10;;;;;;;;;;5011429;28;20219;-86
2023/07/13 08:19:05;;;;;;;1.45;1.13;;;;;;;;;;4996049;28;20292;-86
2023/07/13 08:21:33;;;;;;;2.03;1.00;;;;;;;;;;5011189;28;20310;-87
2023/07/13 08:24:00;;;;;;;2.45;1.23;;;;;;;;;;5012098;28;20223;-86
2023/07/13 08:26:26;;;;;;;4.03;1.17;;;;;;;;;;5012739;28;20261;-86
2023/07/13 08:28:54;;;;;;;5.05;1.45;;;;;;;;;;5012897;28;20266;-84
2023/07/13 08:31:22;;;;;;;1.10;0.88;;;;;;;;;;5010884;28;20227;-86
2023/07/13 08:33:49;;;;;;;1.50;1.05;;;;;;;;;;5008847;28;20231;-87
2023/07/13 08:36:16;;;;;;;2.45;1.00;;;;;;;;;;5012939;28;20658;-86
2023/07/13 08:38:43;;;;;;;2.53;1.17;;;;;;;;;;5010668;28;20286;-85
2023/07/13 08:41:15;;;;;;;1.55;0.70;;;;;;;;;;5010096;28;20227;-86
2023/07/13 08:43:42;;;;;;;3.42;1.13;;;;;;;;;;5012111;28;20235;-85
2023/07/13 08:46:11;;;;;;;1.92;1.00;;;;;;;;;;5011220;28;20211;-85
2023/07/13 08:48:43;;;;;;;1.58;1.05;;;;;;;;;;5011238;28;20242;-83
2023/07/13 08:51:14;;;;;;;1.65;0.73;;;;;;;;;;5011656;28;20243;-86
2023/07/13 08:53:43;;;;;;;1.75;1.00;;;;;;;;;;5007361;28;20277;-86
2023/07/13 08:56:12;;;;;;;3.45;0.90;;;;;;;;;;5013524;28;20216;-86
2023/07/13 08:58:40;;;;;;;1.92;1.00;;;;;;;;;;5004595;28;20236;-85
2023/07/13 09:01:14;;;;;;;1.77;0.80;;;;;;;;;;5006298;28;20232;-85
2023/07/13 09:03:48;;;;;;;5.65;0.95;;;;;;;;;;5015252;28;20711;-85
2023/07/13 09:06:16;;;;;;;1.35;1.10;;;;;;;;;;5005402;28;20213;-89
2023/07/13 09:08:48;;;;;;;2.97;1.10;;;;;;;;;;5014342;28;20315;-90
2023/07/13 09:11:23;;;;;;;2.22;0.90;;;;;;;;;;5015898;28;20227;-87
2023/07/13 09:13:55;;;;;;;6.18;1.20;;;;;;;;;;5003118;28;20253;-87
2023/07/13 09:16:23;;;;;;;1.25;0.95;;;;;;;;;;5015331;28;20199;-91
2023/07/13 09:18:53;;;;;;;2.58;1.20;;;;;;;;;;5014298;28;20234;-87
2023/07/13 09:21:23;;;;;;;3.50;0.93;;;;;;;;;;5018473;28;20285;-88
2023/07/13 09:23:51;;;;;;;2.67;1.20;;;;;;;;;;5005278;28;20223;-85
2023/07/13 09:26:21;;;;;;;1.33;1.02;;;;;;;;;;5013617;28;20243;-85
2023/07/13 09:28:51;;;;;;;1.63;1.10;;;;;;;;;;5014310;28;20259;-85
2023/07/13 09:31:22;;;;;;;4.22;0.85;;;;;;;;;;5014764;28;20235;-85
2023/07/13 09:33:50;;;;;;;3.55;0.95;;;;;;;;;;5006443;28;20242;-85
2023/07/13 09:36:24;;;;;;;2.95;1.05;;;;;;;;;;5009889;28;20219;-86
2023/07/13 09:38:54;;;;;;;1.67;0.60;;;;;;;;;;5005535;28;20313;-86
2023/07/13 09:41:23;;;;;;;1.88;0.60;;;;;;;;;;5014270;28;20232;-86
2023/07/13 09:44:03;;;;;;;1.98;1.02;;;;;;;;;;5013429;28;20724;-86
2023/07/13 09:46:30;;;;;;;3.15;1.13;;;;;;;;;;4993146;28;20215;-87
2023/07/13 09:48:57;;;;;;;6.07;1.23;;;;;;;;;;5012920;28;20626;-85
2023/07/13 09:51:25;;;;;;;3.20;1.00;;;;;;;;;;5013391;28;20668;-85
2023/07/13 09:53:52;;;;;;;2.50;0.93;;;;;;;;;;5012952;28;20239;-86
2023/07/13 09:56:20;;;;;;;2.03;1.10;;;;;;;;;;5006071;28;20629;-86
2023/07/13 09:58:47;;;;;;;2.67;0.70;;;;;;;;;;5004885;28;20234;-86
2023/07/13 10:01:15;;;;;;;2.47;0.77;;;;;;;;;;5012736;28;20227;-85
2023/07/13 10:03:53;;;;;;;1.00;0.82;;;;;;;;;;5013011;28;20665;-86
2023/07/13 10:06:21;;;;;;;1.13;0.65;;;;;;;;;;4995372;28;20218;-85
2023/07/13 10:08:51;;;;;;;2.25;1.20;;;;;;;;;;5012810;28;20326;-86
2023/07/13 10:11:20;;;;;;;1.38;0.80;;;;;;;;;;5012741;28;20649;-86
2023/07/13 10:13:52;;;;;;;0.85;0.65;;;;;;;;;;4991730;28;20232;-85
2023/07/13 10:16:20;;;;;;;1.17;0.75;;;;;;;;;;5003018;28;20207;-85
2023/07/13 10:18:49;;;;;;;2.05;0.90;;;;;;;;;;5006055;28;20664;-87
2023/07/13 10:21:18;;;;;;;4.00;1.02;;;;;;;;;;5010972;28;20669;-85
2023/07/13 10:23:46;;;;;;;5.50;1.10;;;;;;;;;;5011822;28;20255;-85
2023/07/13 10:26:18;;;;;;;2.75;1.40;;;;;;;;;;5012258;28;20208;-85
2023/07/13 10:28:47;;;;;;;1.73;0.88;;;;;;;;;;5011462;28;20235;-85
2023/07/13 10:31:15;;;;;;;2.63;0.82;;;;;;;;;;5011649;28;20227;-85
2023/07/13 10:33:42;;;;;;;3.10;1.20;;;;;;;;;;5011652;28;20237;-85
2023/07/13 10:36:14;;;;;;;1.75;0.63;;;;;;;;;;5005574;28;20212;-85
2023/07/13 10:38:42;;;;;;;1.52;1.10;;;;;;;;;;5011342;28;20335;-85
2023/07/13 10:41:13;;;;;;;1.13;1.00;;;;;;;;;;5011352;28;20231;-85
2023/07/13 10:43:43;;;;;;;1.48;1.00;;;;;;;;;;5002933;28;20227;-86
2023/07/13 10:46:12;;;;;;;1.42;1.02;;;;;;;;;;5003814;28;20681;-85
2023/07/13 10:48:41;;;;;;;1.23;0.70;;;;;;;;;;5012260;28;20232;-86
2023/07/13 10:51:08;;;;;;;1.15;0.70;;;;;;;;;;5011528;28;20329;-85
2023/07/13 10:53:37;;;;;;;2.83;0.73;;;;;;;;;;4993795;28;20653;-85
2023/07/13 10:56:05;;;;;;;1.30;0.70;;;;;;;;;;4992118;28;20247;-85
2023/07/13 10:58:36;;;;;;;3.10;0.98;;;;;;;;;;4994893;28;20227;-85
2023/07/13 11:01:09;;;;;;;1.73;0.90;;;;;;;;;;5000638;28;20223;-86
2023/07/13 11:03:38;;;;;;;2.85;0.85;;;;;;;;;;5011095;28;20648;-85
2023/07/13 11:06:09;;;;;;;2.85;1.08;;;;;;;;;;5010960;28;20211;-86
2023/07/13 11:08:38;;;;;;;2.13;1.05;;;;;;;;;;5004821;28;20235;-85
2023/07/13 11:11:26;;;;;;;3.15;1.25;;;;;;;;;;5005977;28;20247;-85
2023/07/13 11:14:04;;;;;;;2.38;0.95;;;;;;;;;;5011039;28;20326;-86
2023/07/13 11:16:38;;;;;;;0.88;0.63;;;;;;;;;;5003504;28;20686;-85
2023/07/13 11:19:25;;;;;;;2.63;0.98;;;;;;;;;;5009125;28;20237;-85
2023/07/13 11:22:10;;;;;;;1.45;1.10;;;;;;;;;;5007329;28;20250;-85
2023/07/13 11:24:50;;;;;;;2.38;0.70;;;;;;;;;;4994029;28;20728;-85
2023/07/13 11:27:23;;;;;;;0.93;0.68;;;;;;;;;;5010632;28;20222;-86
2023/07/13 11:29:51;;;;;;;1.13;0.98;;;;;;;;;;4991464;28;20235;-85
2023/07/13 11:32:23;;;;;;;4.70;1.00;;;;;;;;;;4990962;28;20220;-85
2023/07/13 11:34:51;;;;;;;3.38;0.90;;;;;;;;;;4991057;28;20231;-85
2023/07/13 11:37:19;;;;;;;1.08;0.82;;;;;;;;;;4990459;28;20233;-86
2023/07/13 11:39:48;;;;;;;1.27;1.10;;;;;;;;;;4991162;28;20235;-86
2023/07/13 11:42:16;;;;;;;1.85;0.70;;;;;;;;;;4982236;28;20228;-86
2023/07/13 11:44:45;;;;;;;5.35;1.02;;;;;;;;;;4991348;28;20299;-85
2023/07/13 11:47:20;;;;;;;2.92;0.93;;;;;;;;;;4990350;28;20207;-84
2023/07/13 11:49:49;;;;;;;1.30;0.90;;;;;;;;;;5018369;28;20238;-87
2023/07/13 11:52:17;;;;;;;1.58;1.02;;;;;;;;;;5010523;28;20211;-86
2023/07/13 11:54:50;;;;;;;2.47;1.13;;;;;;;;;;5017322;28;20277;-85
2023/07/13 11:57:22;;;;;;;3.92;1.00;;;;;;;;;;5020177;28;20238;-86
2023/07/13 11:59:51;;;;;;;3.83;0.98;;;;;;;;;;5004536;28;20230;-86
2023/07/13 12:02:25;;;;;;;3.92;1.20;;;;;;;;;;5010175;28;20554;-86
2023/07/13 12:04:53;;;;;;;2.13;1.30;;;;;;;;;;5002389;28;20206;-86
2023/07/13 12:07:20;;;;;;;2.00;0.82;;;;;;;;;;5008234;28;20249;-86
2023/07/13 12:09:50;;;;;;;2.95;1.08;;;;;;;;;;5008215;28;20716;-86
2023/07/13 12:12:19;;;;;;;3.70;1.00;;;;;;;;;;5001571;28;20219;-85
2023/07/13 12:14:46;;;;;;;3.03;0.95;;;;;;;;;;5010678;28;20235;-84
2023/07/13 12:17:17;;;;;;;1.73;0.90;;;;;;;;;;5001823;28;20282;-86
2023/07/13 12:19:46;;;;;;;3.38;1.30;;;;;;;;;;5010191;28;20614;-85
2023/07/13 12:22:14;;;;;;;2.03;0.65;;;;;;;;;;5002490;28;20282;-85
2023/07/13 12:24:41;;;;;;;1.27;0.70;;;;;;;;;;5010799;28;20242;-85
2023/07/13 12:27:19;;;;;;;0.98;0.95;;;;;;;;;;5011271;28;20282;-86
2023/07/13 12:29:51;;;;;;;1.27;0.80;;;;;;;;;;5010357;28;20246;-85
2023/07/13 12:32:19;;;;;;;2.15;1.05;;;;;;;;;;5006380;28;20222;-83
2023/07/13 12:34:57;;;;;;;3.25;1.25;;;;;;;;;;5010926;28;20249;-85
2023/07/13 12:37:24;;;;;;;3.10;1.00;;;;;;;;;;5011914;28;20222;-85
2023/07/13 12:39:51;;;;;;;1.63;0.98;;;;;;;;;;5012127;28;20223;-85
2023/07/13 12:42:23;;;;;;;1.23;1.13;;;;;;;;;;5012858;28;20305;-85
2023/07/13 12:44:51;;;;;;;3.72;1.17;;;;;;;;;;5002699;28;20266;-85
2023/07/13 12:47:18;;;;;;;2.45;0.90;;;;;;;;;;5009835;28;20211;-85
2023/07/13 12:49:49;;;;;;;3.00;1.10;;;;;;;;;;4998555;28;20243;-86
2023/07/13 12:52:19;;;;;;;2.22;1.00;;;;;;;;;;5013534;28;20210;-84
2023/07/13 12:54:56;;;;;;;1.73;1.00;;;;;;;;;;5000636;28;20224;-85
2023/07/13 12:57:23;;;;;;;2.28;0.88;;;;;;;;;;4994056;28;20212;-86
2023/07/13 12:59:53;;;;;;;1.40;0.88;;;;;;;;;;4995255;28;20236;-85
2023/07/13 13:02:24;;;;;;;1.33;1.00;;;;;;;;;;4993640;28;20299;-85
2023/07/13 13:04:51;;;;;;;1.00;0.70;;;;;;;;;;4994607;28;20214;-86
2023/07/13 13:07:19;;;;;;;2.20;0.90;;;;;;;;;;4993550;28;20196;-86
2023/07/13 13:09:47;;;;;;;1.83;0.82;;;;;;;;;;4994166;28;20224;-85
2023/07/13 13:12:15;;;;;;;3.20;1.10;;;;;;;;;;4989182;28;20708;-85
2023/07/13 13:14:42;;;;;;;1.33;0.85;;;;;;;;;;4993676;28;20319;-86
2023/07/13 13:17:19;;;;;;;2.25;1.10;;;;;;;;;;4993744;28;20232;-85
2023/07/13 13:19:47;;;;;;;1.30;1.02;;;;;;;;;;4987274;28;20228;-85
2023/07/13 13:22:14;;;;;;;2.92;1.30;;;;;;;;;;4993689;28;20219;-86
2023/07/13 13:24:43;;;;;;;2.50;1.00;;;;;;;;;;4993336;28;20307;-86
2023/07/13 13:27:17;;;;;;;2.03;1.05;;;;;;;;;;4993959;28;20667;-85
2023/07/13 13:29:44;;;;;;;2.80;1.25;;;;;;;;;;4986470;28;20223;-84
2023/07/13 13:32:13;;;;;;;1.67;1.08;;;;;;;;;;4993032;28;20200;-87
2023/07/13 13:34:42;;;;;;;3.67;0.98;;;;;;;;;;4991925;28;20227;-84
2023/07/13 13:37:17;;;;;;;1.88;1.08;;;;;;;;;;4992718;28;20741;-85
2023/07/13 13:39:46;;;;;;;1.17;0.85;;;;;;;;;;5010306;28;20317;-86
2023/07/13 13:42:14;;;;;;;4.82;0.90;;;;;;;;;;5016012;28;20203;-85
2023/07/13 13:44:41;;;;;;;1.52;1.10;;;;;;;;;;5019796;28;20227;-85
2023/07/13 13:47:15;;;;;;;5.43;1.10;;;;;;;;;;5012865;28;20294;-84
2023/07/13 13:49:42;;;;;;;3.03;0.82;;;;;;;;;;5004989;28;20242;-86
2023/07/13 13:52:10;;;;;;;1.40;1.02;;;;;;;;;;5012826;28;20206;-86
2023/07/13 13:54:37;;;;;;;1.55;1.10;;;;;;;;;;5004148;28;20227;-86
2023/07/13 13:57:06;;;;;;;1.85;1.20;;;;;;;;;;5012813;28;20732;-89
2023/07/13 13:59:39;;;;;;;1.88;1.05;;;;;;;;;;5013214;28;20233;-89
2023/07/13 14:02:12;;;;;;;1.80;0.95;;;;;;;;;;5009862;28;20218;-87
2023/07/13 14:04:40;;;;;;;1.00;1.00;;;;;;;;;;5004566;28;20229;-85
2023/07/13 14:07:07;;;;;;;3.50;1.38;;;;;;;;;;5012330;28;20262;-84
2023/07/13 14:09:34;;;;;;;2.53;0.95;;;;;;;;;;5011683;28;20757;-90
2023/07/13 14:12:01;;;;;;;2.38;1.15;;;;;;;;;;5013667;28;20204;-90
2023/07/13 14:14:29;;;;;;;6.07;1.40;;;;;;;;;;5012559;28;20250;-87
2023/07/13 14:16:57;;;;;;;1.67;1.05;;;;;;;;;;5012919;28;20200;-88
2023/07/13 14:19:24;;;;;;;2.08;1.10;;;;;;;;;;5011601;28;20223;-89
2023/07/13 14:21:53;;;;;;;3.72;0.98;;;;;;;;;;5013853;28;20215;-90
2023/07/13 14:24:21;;;;;;;2.55;1.00;;;;;;;;;;5010501;28;20270;-90
2023/07/13 14:26:48;;;;;;;2.42;1.00;;;;;;;;;;5014527;28;20203;-90
2023/07/13 14:29:17;;;;;;;2.05;1.02;;;;;;;;;;5008652;28;20235;-84
2023/07/13 14:31:46;;;;;;;4.38;1.23;;;;;;;;;;5010749;28;20234;-89
2023/07/13 14:34:14;;;;;;;1.00;0.90;;;;;;;;;;5012120;28;20250;-89
2023/07/13 14:36:44;;;;;;;1.83;1.35;;;;;;;;;;5012675;28;20235;-86
2023/07/13 14:39:13;;;;;;;1.25;0.90;;;;;;;;;;5012135;28;20227;-88
2023/07/13 14:41:40;;;;;;;2.80;1.20;;;;;;;;;;5004463;28;20254;-90
2023/07/13 14:44:11;;;;;;;3.00;0.95;;;;;;;;;;5019743;28;20223;-87
2023/07/13 14:46:38;;;;;;;1.15;1.00;;;;;;;;;;5020342;28;20200;-88
2023/07/13 14:49:15;;;;;;;1.38;0.95;;;;;;;;;;5011752;28;20230;-88
2023/07/13 14:51:42;;;;;;;2.67;0.90;;;;;;;;;;5012405;28;20289;-87